sensor_id;sensor_type;location;lat;lon;timestamp;P1;durP1;ratioP1;P2;durP2;ratioP2
71395;SDS011;59888;55.814;37.132;2024-02-21T00:01:14;13.73;;;6.63;;
71395;SDS011;59888;55.814;37.132;2024-02-21T00:03:41;10.20;;;6.70;;
71395;SDS011;59888;55.814;37.132;2024-02-21T00:06:07;11.85;;;7.18;;
71395;SDS011;59888;55.814;37.132;2024-02-21T00:08:32;13.75;;;7.07;;
71395;SDS011;59888;55.814;37.132;2024-02-21T00:10:59;12.40;;;6.80;;
71395;SDS011;59888;55.814;37.132;2024-02-21T00:13:40;12.05;;;6.80;;
71395;SDS011;59888;55.814;37.132;2024-02-21T00:16:07;14.15;;;7.22;;
71395;SDS011;59888;55.814;37.132;2024-02-21T00:18:33;11.80;;;6.60;;
71395;SDS011;59888;55.814;37.132;2024-02-21T00:20:59;12.57;;;6.70;;
71395;SDS011;59888;55.814;37.132;2024-02-21T00:23:27;12.02;;;6.50;;
71395;SDS011;59888;55.814;37.132;2024-02-21T00:25:55;14.30;;;7.70;;
71395;SDS011;59888;55.814;37.132;2024-02-21T00:28:20;12.88;;;7.28;;
71395;SDS011;59888;55.814;37.132;2024-02-21T00:30:48;13.32;;;6.93;;
71395;SDS011;59888;55.814;37.132;2024-02-21T00:33:20;12.65;;;7.15;;
71395;SDS011;59888;55.814;37.132;2024-02-21T00:35:46;12.38;;;6.97;;
71395;SDS011;59888;55.814;37.132;2024-02-21T00:38:14;13.63;;;6.75;;
71395;SDS011;59888;55.814;37.132;2024-02-21T00:40:40;10.95;;;6.45;;
71395;SDS011;59888;55.814;37.132;2024-02-21T00:43:07;13.10;;;6.80;;
71395;SDS011;59888;55.814;37.132;2024-02-21T00:45:33;13.05;;;7.15;;
71395;SDS011;59888;55.814;37.132;2024-02-21T00:47:58;12.45;;;7.18;;
71395;SDS011;59888;55.814;37.132;2024-02-21T00:50:24;12.60;;;6.63;;
71395;SDS011;59888;55.814;37.132;2024-02-21T00:52:55;14.75;;;7.05;;
71395;SDS011;59888;55.814;37.132;2024-02-21T00:55:21;13.27;;;7.32;;
71395;SDS011;59888;55.814;37.132;2024-02-21T00:57:47;12.45;;;6.88;;
71395;SDS011;59888;55.814;37.132;2024-02-21T01:00:13;14.75;;;6.75;;
71395;SDS011;59888;55.814;37.132;2024-02-21T01:02:47;13.23;;;7.55;;
71395;SDS011;59888;55.814;37.132;2024-02-21T01:05:13;11.57;;;6.80;;
71395;SDS011;59888;55.814;37.132;2024-02-21T01:07:39;11.77;;;6.97;;
71395;SDS011;59888;55.814;37.132;2024-02-21T01:10:05;12.60;;;7.00;;
71395;SDS011;59888;55.814;37.132;2024-02-21T01:12:32;14.68;;;7.30;;
71395;SDS011;59888;55.814;37.132;2024-02-21T01:14:57;11.98;;;6.88;;
71395;SDS011;59888;55.814;37.132;2024-02-21T01:17:23;14.60;;;6.70;;
71395;SDS011;59888;55.814;37.132;2024-02-21T01:19:51;13.57;;;6.80;;
71395;SDS011;59888;55.814;37.132;2024-02-21T01:22:17;10.82;;;6.32;;
71395;SDS011;59888;55.814;37.132;2024-02-21T01:24:43;13.13;;;6.68;;
71395;SDS011;59888;55.814;37.132;2024-02-21T01:27:09;12.15;;;6.60;;
71395;SDS011;59888;55.814;37.132;2024-02-21T01:29:35;14.20;;;7.05;;
71395;SDS011;59888;55.814;37.132;2024-02-21T01:32:01;11.60;;;6.90;;
71395;SDS011;59888;55.814;37.132;2024-02-21T01:34:26;11.98;;;6.85;;
71395;SDS011;59888;55.814;37.132;2024-02-21T01:36:52;11.90;;;6.85;;
71395;SDS011;59888;55.814;37.132;2024-02-21T01:39:18;13.35;;;7.30;;
71395;SDS011;59888;55.814;37.132;2024-02-21T01:41:44;12.73;;;6.53;;
71395;SDS011;59888;55.814;37.132;2024-02-21T01:44:10;12.35;;;7.15;;
71395;SDS011;59888;55.814;37.132;2024-02-21T01:46:36;13.35;;;7.18;;
71395;SDS011;59888;55.814;37.132;2024-02-21T01:49:03;12.57;;;7.15;;
71395;SDS011;59888;55.814;37.132;2024-02-21T01:51:30;14.70;;;7.03;;
71395;SDS011;59888;55.814;37.132;2024-02-21T01:53:56;12.82;;;6.85;;
71395;SDS011;59888;55.814;37.132;2024-02-21T01:56:22;12.38;;;6.90;;
71395;SDS011;59888;55.814;37.132;2024-02-21T01:58:49;13.82;;;7.05;;
71395;SDS011;59888;55.814;37.132;2024-02-21T02:01:15;13.27;;;7.10;;
71395;SDS011;59888;55.814;37.132;2024-02-21T02:06:39;12.68;;;6.90;;
71395;SDS011;59888;55.814;37.132;2024-02-21T02:09:06;10.77;;;6.60;;
71395;SDS011;59888;55.814;37.132;2024-02-21T02:11:33;13.38;;;6.35;;
71395;SDS011;59888;55.814;37.132;2024-02-21T02:13:59;11.32;;;7.05;;
71395;SDS011;59888;55.814;37.132;2024-02-21T02:16:25;15.40;;;7.38;;
71395;SDS011;59888;55.814;37.132;2024-02-21T02:18:51;13.43;;;6.70;;
71395;SDS011;59888;55.814;37.132;2024-02-21T02:21:24;14.68;;;7.45;;
71395;SDS011;59888;55.814;37.132;2024-02-21T02:23:52;12.80;;;7.30;;
71395;SDS011;59888;55.814;37.132;2024-02-21T02:26:18;12.05;;;6.70;;
71395;SDS011;59888;55.814;37.132;2024-02-21T02:28:44;14.23;;;7.32;;
71395;SDS011;59888;55.814;37.132;2024-02-21T02:31:11;13.52;;;7.35;;
71395;SDS011;59888;55.814;37.132;2024-02-21T02:33:37;12.52;;;6.85;;
71395;SDS011;59888;55.814;37.132;2024-02-21T02:36:03;13.00;;;6.63;;
71395;SDS011;59888;55.814;37.132;2024-02-21T02:38:29;13.23;;;7.18;;
71395;SDS011;59888;55.814;37.132;2024-02-21T02:40:55;15.32;;;7.85;;
71395;SDS011;59888;55.814;37.132;2024-02-21T02:43:21;13.63;;;7.25;;
71395;SDS011;59888;55.814;37.132;2024-02-21T02:45:47;12.63;;;7.53;;
71395;SDS011;59888;55.814;37.132;2024-02-21T02:48:12;14.82;;;7.15;;
71395;SDS011;59888;55.814;37.132;2024-02-21T02:50:38;16.05;;;7.78;;
71395;SDS011;59888;55.814;37.132;2024-02-21T02:53:05;14.07;;;8.15;;
71395;SDS011;59888;55.814;37.132;2024-02-21T02:55:31;14.27;;;7.65;;
71395;SDS011;59888;55.814;37.132;2024-02-21T02:57:57;17.25;;;7.45;;
71395;SDS011;59888;55.814;37.132;2024-02-21T03:00:24;14.73;;;7.45;;
71395;SDS011;59888;55.814;37.132;2024-02-21T03:02:50;12.48;;;6.97;;
71395;SDS011;59888;55.814;37.132;2024-02-21T03:05:17;13.10;;;7.72;;
71395;SDS011;59888;55.814;37.132;2024-02-21T03:07:45;16.20;;;8.63;;
71395;SDS011;59888;55.814;37.132;2024-02-21T03:10:11;15.30;;;7.57;;
71395;SDS011;59888;55.814;37.132;2024-02-21T03:12:37;15.40;;;7.75;;
71395;SDS011;59888;55.814;37.132;2024-02-21T03:15:05;15.57;;;7.45;;
71395;SDS011;59888;55.814;37.132;2024-02-21T03:17:32;14.52;;;7.47;;
71395;SDS011;59888;55.814;37.132;2024-02-21T03:20:01;12.38;;;7.78;;
71395;SDS011;59888;55.814;37.132;2024-02-21T03:22:30;12.82;;;7.72;;
71395;SDS011;59888;55.814;37.132;2024-02-21T03:24:56;13.88;;;7.75;;
71395;SDS011;59888;55.814;37.132;2024-02-21T03:27:22;13.68;;;7.80;;
71395;SDS011;59888;55.814;37.132;2024-02-21T03:29:48;11.40;;;6.97;;
71395;SDS011;59888;55.814;37.132;2024-02-21T03:32:14;14.23;;;7.80;;
71395;SDS011;59888;55.814;37.132;2024-02-21T03:34:40;15.68;;;8.00;;
71395;SDS011;59888;55.814;37.132;2024-02-21T03:37:07;14.45;;;7.97;;
71395;SDS011;59888;55.814;37.132;2024-02-21T03:39:32;15.52;;;7.38;;
71395;SDS011;59888;55.814;37.132;2024-02-21T03:42:03;12.82;;;7.63;;
71395;SDS011;59888;55.814;37.132;2024-02-21T03:44:32;13.80;;;7.50;;
71395;SDS011;59888;55.814;37.132;2024-02-21T03:47:00;15.43;;;7.55;;
71395;SDS011;59888;55.814;37.132;2024-02-21T03:49:26;13.57;;;7.45;;
71395;SDS011;59888;55.814;37.132;2024-02-21T03:51:52;15.13;;;7.78;;
71395;SDS011;59888;55.814;37.132;2024-02-21T03:54:18;15.45;;;7.30;;
71395;SDS011;59888;55.814;37.132;2024-02-21T03:56:44;17.75;;;8.75;;
71395;SDS011;59888;55.814;37.132;2024-02-21T03:59:11;17.40;;;7.60;;
71395;SDS011;59888;55.814;37.132;2024-02-21T04:01:37;12.73;;;6.93;;
71395;SDS011;59888;55.814;37.132;2024-02-21T04:04:03;15.93;;;7.78;;
71395;SDS011;59888;55.814;37.132;2024-02-21T04:06:31;14.38;;;8.23;;
71395;SDS011;59888;55.814;37.132;2024-02-21T04:08:57;15.35;;;8.07;;
71395;SDS011;59888;55.814;37.132;2024-02-21T04:11:25;14.35;;;7.35;;
71395;SDS011;59888;55.814;37.132;2024-02-21T04:13:51;17.50;;;8.35;;
71395;SDS011;59888;55.814;37.132;2024-02-21T04:16:17;13.30;;;7.18;;
71395;SDS011;59888;55.814;37.132;2024-02-21T04:18:43;14.00;;;7.72;;
71395;SDS011;59888;55.814;37.132;2024-02-21T04:21:09;13.35;;;7.80;;
71395;SDS011;59888;55.814;37.132;2024-02-21T04:26:33;16.75;;;8.50;;
71395;SDS011;59888;55.814;37.132;2024-02-21T04:28:59;14.60;;;7.80;;
71395;SDS011;59888;55.814;37.132;2024-02-21T04:31:25;12.63;;;7.13;;
71395;SDS011;59888;55.814;37.132;2024-02-21T04:33:52;16.05;;;7.97;;
71395;SDS011;59888;55.814;37.132;2024-02-21T04:36:17;15.15;;;7.50;;
71395;SDS011;59888;55.814;37.132;2024-02-21T04:38:45;16.35;;;7.85;;
71395;SDS011;59888;55.814;37.132;2024-02-21T04:41:11;13.70;;;7.70;;
71395;SDS011;59888;55.814;37.132;2024-02-21T04:43:37;16.13;;;7.45;;
71395;SDS011;59888;55.814;37.132;2024-02-21T04:46:04;13.30;;;7.78;;
71395;SDS011;59888;55.814;37.132;2024-02-21T04:48:30;14.30;;;7.45;;
71395;SDS011;59888;55.814;37.132;2024-02-21T04:50:56;14.82;;;7.80;;
71395;SDS011;59888;55.814;37.132;2024-02-21T04:53:22;15.02;;;8.13;;
71395;SDS011;59888;55.814;37.132;2024-02-21T04:55:49;13.80;;;8.02;;
71395;SDS011;59888;55.814;37.132;2024-02-21T04:58:15;15.38;;;8.20;;
71395;SDS011;59888;55.814;37.132;2024-02-21T05:00:41;14.98;;;7.68;;
71395;SDS011;59888;55.814;37.132;2024-02-21T05:03:07;14.60;;;7.57;;
71395;SDS011;59888;55.814;37.132;2024-02-21T05:05:33;15.05;;;8.30;;
71395;SDS011;59888;55.814;37.132;2024-02-21T05:07:59;17.17;;;8.07;;
71395;SDS011;59888;55.814;37.132;2024-02-21T05:10:25;15.45;;;8.30;;
71395;SDS011;59888;55.814;37.132;2024-02-21T05:12:52;14.60;;;7.97;;
71395;SDS011;59888;55.814;37.132;2024-02-21T05:15:18;16.23;;;7.85;;
71395;SDS011;59888;55.814;37.132;2024-02-21T05:17:44;16.85;;;8.00;;
71395;SDS011;59888;55.814;37.132;2024-02-21T05:20:10;15.73;;;8.45;;
71395;SDS011;59888;55.814;37.132;2024-02-21T05:25:22;16.17;;;8.60;;
71395;SDS011;59888;55.814;37.132;2024-02-21T05:27:47;17.23;;;8.90;;
71395;SDS011;59888;55.814;37.132;2024-02-21T05:30:17;14.27;;;8.25;;
71395;SDS011;59888;55.814;37.132;2024-02-21T05:32:45;18.38;;;8.70;;
71395;SDS011;59888;55.814;37.132;2024-02-21T05:35:10;17.38;;;8.40;;
71395;SDS011;59888;55.814;37.132;2024-02-21T05:37:36;14.68;;;8.45;;
71395;SDS011;59888;55.814;37.132;2024-02-21T05:40:02;16.40;;;8.55;;
71395;SDS011;59888;55.814;37.132;2024-02-21T05:42:34;16.80;;;8.38;;
71395;SDS011;59888;55.814;37.132;2024-02-21T05:44:59;16.65;;;8.02;;
71395;SDS011;59888;55.814;37.132;2024-02-21T05:47:27;15.95;;;8.55;;
71395;SDS011;59888;55.814;37.132;2024-02-21T05:49:52;17.10;;;8.43;;
71395;SDS011;59888;55.814;37.132;2024-02-21T05:52:34;17.45;;;8.35;;
71395;SDS011;59888;55.814;37.132;2024-02-21T05:55:01;15.30;;;7.75;;
71395;SDS011;59888;55.814;37.132;2024-02-21T05:57:27;16.77;;;9.40;;
71395;SDS011;59888;55.814;37.132;2024-02-21T05:59:52;16.30;;;8.52;;
71395;SDS011;59888;55.814;37.132;2024-02-21T06:02:23;17.90;;;9.10;;
71395;SDS011;59888;55.814;37.132;2024-02-21T06:04:49;16.10;;;8.52;;
71395;SDS011;59888;55.814;37.132;2024-02-21T06:07:15;19.35;;;9.30;;
71395;SDS011;59888;55.814;37.132;2024-02-21T06:09:41;18.30;;;8.68;;
71395;SDS011;59888;55.814;37.132;2024-02-21T06:12:22;18.10;;;8.75;;
71395;SDS011;59888;55.814;37.132;2024-02-21T06:14:48;18.70;;;8.98;;
71395;SDS011;59888;55.814;37.132;2024-02-21T06:17:14;16.73;;;8.77;;
71395;SDS011;59888;55.814;37.132;2024-02-21T06:19:40;17.48;;;8.88;;
71395;SDS011;59888;55.814;37.132;2024-02-21T06:22:13;19.20;;;8.15;;
71395;SDS011;59888;55.814;37.132;2024-02-21T06:24:39;14.95;;;8.00;;
71395;SDS011;59888;55.814;37.132;2024-02-21T06:27:04;17.13;;;8.48;;
71395;SDS011;59888;55.814;37.132;2024-02-21T06:29:33;17.90;;;8.90;;
71395;SDS011;59888;55.814;37.132;2024-02-21T06:31:59;18.67;;;8.48;;
71395;SDS011;59888;55.814;37.132;2024-02-21T06:34:25;17.55;;;8.30;;
71395;SDS011;59888;55.814;37.132;2024-02-21T06:36:51;17.55;;;9.18;;
71395;SDS011;59888;55.814;37.132;2024-02-21T06:39:18;17.70;;;8.60;;
71395;SDS011;59888;55.814;37.132;2024-02-21T06:41:44;16.33;;;8.32;;
71395;SDS011;59888;55.814;37.132;2024-02-21T06:44:13;18.15;;;9.00;;
71395;SDS011;59888;55.814;37.132;2024-02-21T06:46:41;16.35;;;8.18;;
71395;SDS011;59888;55.814;37.132;2024-02-21T06:49:15;16.92;;;8.77;;
71395;SDS011;59888;55.814;37.132;2024-02-21T06:51:47;21.65;;;8.95;;
71395;SDS011;59888;55.814;37.132;2024-02-21T06:54:13;17.35;;;8.82;;
71395;SDS011;59888;55.814;37.132;2024-02-21T06:56:40;16.00;;;8.07;;
71395;SDS011;59888;55.814;37.132;2024-02-21T06:59:11;15.38;;;8.55;;
71395;SDS011;59888;55.814;37.132;2024-02-21T07:01:44;14.90;;;8.18;;
71395;SDS011;59888;55.814;37.132;2024-02-21T07:04:10;18.27;;;7.55;;
71395;SDS011;59888;55.814;37.132;2024-02-21T07:06:36;14.43;;;7.70;;
71395;SDS011;59888;55.814;37.132;2024-02-21T07:09:02;14.75;;;7.45;;
71395;SDS011;59888;55.814;37.132;2024-02-21T07:11:28;16.85;;;8.15;;
71395;SDS011;59888;55.814;37.132;2024-02-21T07:13:53;14.68;;;7.88;;
71395;SDS011;59888;55.814;37.132;2024-02-21T07:16:20;14.88;;;8.07;;
71395;SDS011;59888;55.814;37.132;2024-02-21T07:18:46;15.20;;;7.32;;
71395;SDS011;59888;55.814;37.132;2024-02-21T07:21:12;14.25;;;7.70;;
71395;SDS011;59888;55.814;37.132;2024-02-21T07:23:40;15.90;;;7.95;;
71395;SDS011;59888;55.814;37.132;2024-02-21T07:26:07;14.63;;;7.90;;
71395;SDS011;59888;55.814;37.132;2024-02-21T07:28:33;13.73;;;7.78;;
71395;SDS011;59888;55.814;37.132;2024-02-21T07:31:00;15.38;;;8.15;;
71395;SDS011;59888;55.814;37.132;2024-02-21T07:33:32;15.65;;;8.05;;
71395;SDS011;59888;55.814;37.132;2024-02-21T07:35:58;13.77;;;7.75;;
71395;SDS011;59888;55.814;37.132;2024-02-21T07:38:25;14.77;;;8.02;;
71395;SDS011;59888;55.814;37.132;2024-02-21T07:40:51;14.30;;;7.32;;
71395;SDS011;59888;55.814;37.132;2024-02-21T07:43:17;12.88;;;7.03;;
71395;SDS011;59888;55.814;37.132;2024-02-21T07:45:44;14.98;;;7.65;;
71395;SDS011;59888;55.814;37.132;2024-02-21T07:48:10;18.17;;;7.68;;
71395;SDS011;59888;55.814;37.132;2024-02-21T07:50:36;14.27;;;7.85;;
71395;SDS011;59888;55.814;37.132;2024-02-21T07:53:03;15.80;;;7.50;;
71395;SDS011;59888;55.814;37.132;2024-02-21T07:55:29;13.07;;;7.35;;
71395;SDS011;59888;55.814;37.132;2024-02-21T07:57:55;13.23;;;7.32;;
71395;SDS011;59888;55.814;37.132;2024-02-21T08:00:21;14.38;;;7.38;;
71395;SDS011;59888;55.814;37.132;2024-02-21T08:02:48;14.85;;;7.90;;
71395;SDS011;59888;55.814;37.132;2024-02-21T08:05:14;12.98;;;6.60;;
71395;SDS011;59888;55.814;37.132;2024-02-21T08:07:40;12.60;;;7.10;;
71395;SDS011;59888;55.814;37.132;2024-02-21T08:10:06;11.15;;;6.60;;
71395;SDS011;59888;55.814;37.132;2024-02-21T08:12:35;13.73;;;7.10;;
71395;SDS011;59888;55.814;37.132;2024-02-21T08:15:01;15.60;;;7.70;;
71395;SDS011;59888;55.814;37.132;2024-02-21T08:17:31;15.18;;;7.60;;
71395;SDS011;59888;55.814;37.132;2024-02-21T08:19:56;18.25;;;8.05;;
71395;SDS011;59888;55.814;37.132;2024-02-21T08:22:23;12.23;;;6.60;;
71395;SDS011;59888;55.814;37.132;2024-02-21T08:24:49;15.23;;;7.15;;
71395;SDS011;59888;55.814;37.132;2024-02-21T08:27:15;14.00;;;7.47;;
71395;SDS011;59888;55.814;37.132;2024-02-21T08:29:42;14.85;;;7.45;;
71395;SDS011;59888;55.814;37.132;2024-02-21T08:32:14;13.55;;;7.13;;
71395;SDS011;59888;55.814;37.132;2024-02-21T08:34:39;12.13;;;7.05;;
71395;SDS011;59888;55.814;37.132;2024-02-21T08:37:07;13.68;;;6.95;;
71395;SDS011;59888;55.814;37.132;2024-02-21T08:39:33;14.45;;;7.22;;
71395;SDS011;59888;55.814;37.132;2024-02-21T08:41:59;13.52;;;7.10;;
71395;SDS011;59888;55.814;37.132;2024-02-21T08:44:27;13.32;;;7.85;;
71395;SDS011;59888;55.814;37.132;2024-02-21T08:46:53;13.75;;;6.82;;
71395;SDS011;59888;55.814;37.132;2024-02-21T08:49:18;15.55;;;7.30;;
71395;SDS011;59888;55.814;37.132;2024-02-21T08:51:45;13.63;;;7.30;;
71395;SDS011;59888;55.814;37.132;2024-02-21T08:54:12;15.65;;;7.80;;
71395;SDS011;59888;55.814;37.132;2024-02-21T08:56:38;14.55;;;7.70;;
71395;SDS011;59888;55.814;37.132;2024-02-21T08:59:05;13.10;;;7.38;;
71395;SDS011;59888;55.814;37.132;2024-02-21T09:01:31;14.85;;;8.52;;
71395;SDS011;59888;55.814;37.132;2024-02-21T09:04:04;15.25;;;8.38;;
71395;SDS011;59888;55.814;37.132;2024-02-21T09:06:32;14.07;;;7.55;;
71395;SDS011;59888;55.814;37.132;2024-02-21T09:08:59;13.55;;;7.00;;
71395;SDS011;59888;55.814;37.132;2024-02-21T09:11:24;14.57;;;7.20;;
71395;SDS011;59888;55.814;37.132;2024-02-21T09:14:04;12.57;;;6.72;;
71395;SDS011;59888;55.814;37.132;2024-02-21T09:16:32;14.98;;;7.45;;
71395;SDS011;59888;55.814;37.132;2024-02-21T09:19:00;14.63;;;7.45;;
71395;SDS011;59888;55.814;37.132;2024-02-21T09:21:26;16.10;;;7.28;;
71395;SDS011;59888;55.814;37.132;2024-02-21T09:23:53;12.65;;;7.10;;
71395;SDS011;59888;55.814;37.132;2024-02-21T09:26:19;14.20;;;7.30;;
71395;SDS011;59888;55.814;37.132;2024-02-21T09:28:45;16.70;;;7.75;;
71395;SDS011;59888;55.814;37.132;2024-02-21T09:31:11;15.55;;;7.20;;
71395;SDS011;59888;55.814;37.132;2024-02-21T09:33:38;15.40;;;7.68;;
71395;SDS011;59888;55.814;37.132;2024-02-21T09:36:04;13.65;;;7.30;;
71395;SDS011;59888;55.814;37.132;2024-02-21T09:38:36;11.77;;;7.35;;
71395;SDS011;59888;55.814;37.132;2024-02-21T09:41:06;15.18;;;7.25;;
71395;SDS011;59888;55.814;37.132;2024-02-21T09:43:34;15.50;;;6.63;;
71395;SDS011;59888;55.814;37.132;2024-02-21T09:46:00;13.38;;;7.38;;
71395;SDS011;59888;55.814;37.132;2024-02-21T09:48:35;12.88;;;6.72;;
71395;SDS011;59888;55.814;37.132;2024-02-21T09:51:04;12.32;;;6.72;;
71395;SDS011;59888;55.814;37.132;2024-02-21T09:53:33;14.20;;;7.22;;
71395;SDS011;59888;55.814;37.132;2024-02-21T09:56:14;14.32;;;7.13;;
71395;SDS011;59888;55.814;37.132;2024-02-21T09:58:41;13.70;;;7.40;;
71395;SDS011;59888;55.814;37.132;2024-02-21T10:01:07;15.65;;;6.78;;
71395;SDS011;59888;55.814;37.132;2024-02-21T10:03:34;16.40;;;7.68;;
71395;SDS011;59888;55.814;37.132;2024-02-21T10:06:00;15.57;;;7.50;;
71395;SDS011;59888;55.814;37.132;2024-02-21T10:08:29;14.43;;;7.35;;
71395;SDS011;59888;55.814;37.132;2024-02-21T10:10:54;16.33;;;7.38;;
71395;SDS011;59888;55.814;37.132;2024-02-21T10:13:36;11.88;;;7.07;;
71395;SDS011;59888;55.814;37.132;2024-02-21T10:16:04;13.00;;;6.55;;
71395;SDS011;59888;55.814;37.132;2024-02-21T10:21:22;12.63;;;6.80;;
71395;SDS011;59888;55.814;37.132;2024-02-21T10:23:50;14.10;;;7.78;;
71395;SDS011;59888;55.814;37.132;2024-02-21T10:26:18;13.20;;;6.75;;
71395;SDS011;59888;55.814;37.132;2024-02-21T10:28:47;13.25;;;6.00;;
71395;SDS011;59888;55.814;37.132;2024-02-21T10:31:24;12.65;;;6.22;;
71395;SDS011;59888;55.814;37.132;2024-02-21T10:33:59;12.82;;;6.22;;
71395;SDS011;59888;55.814;37.132;2024-02-21T10:36:28;13.43;;;6.55;;
71395;SDS011;59888;55.814;37.132;2024-02-21T10:38:54;12.95;;;6.47;;
71395;SDS011;59888;55.814;37.132;2024-02-21T10:41:21;13.75;;;7.25;;
71395;SDS011;59888;55.814;37.132;2024-02-21T10:43:52;14.60;;;7.30;;
71395;SDS011;59888;55.814;37.132;2024-02-21T10:46:22;13.88;;;7.45;;
71395;SDS011;59888;55.814;37.132;2024-02-21T10:48:53;14.55;;;7.05;;
71395;SDS011;59888;55.814;37.132;2024-02-21T10:58:53;13.43;;;7.38;;
71395;SDS011;59888;55.814;37.132;2024-02-21T11:01:21;18.38;;;8.13;;
71395;SDS011;59888;55.814;37.132;2024-02-21T11:03:52;15.65;;;7.72;;
71395;SDS011;59888;55.814;37.132;2024-02-21T11:06:22;18.10;;;7.20;;
71395;SDS011;59888;55.814;37.132;2024-02-21T11:09:01;15.57;;;8.05;;
71395;SDS011;59888;55.814;37.132;2024-02-21T11:11:28;14.75;;;7.35;;
71395;SDS011;59888;55.814;37.132;2024-02-21T11:16:41;16.55;;;8.05;;
71395;SDS011;59888;55.814;37.132;2024-02-21T11:19:26;15.50;;;7.32;;
71395;SDS011;59888;55.814;37.132;2024-02-21T11:21:53;14.40;;;7.47;;
71395;SDS011;59888;55.814;37.132;2024-02-21T11:26:52;15.43;;;7.70;;
71395;SDS011;59888;55.814;37.132;2024-02-21T11:29:24;16.55;;;7.38;;
71395;SDS011;59888;55.814;37.132;2024-02-21T11:31:51;15.35;;;8.00;;
71395;SDS011;59888;55.814;37.132;2024-02-21T11:34:18;15.57;;;7.70;;
71395;SDS011;59888;55.814;37.132;2024-02-21T11:41:47;14.20;;;7.45;;
71395;SDS011;59888;55.814;37.132;2024-02-21T11:44:13;15.30;;;7.22;;
71395;SDS011;59888;55.814;37.132;2024-02-21T11:46:40;20.88;;;7.97;;
71395;SDS011;59888;55.814;37.132;2024-02-21T11:49:06;17.13;;;7.95;;
71395;SDS011;59888;55.814;37.132;2024-02-21T11:51:32;18.05;;;7.97;;
71395;SDS011;59888;55.814;37.132;2024-02-21T11:53:58;13.35;;;7.05;;
71395;SDS011;59888;55.814;37.132;2024-02-21T11:56:24;16.42;;;7.63;;
71395;SDS011;59888;55.814;37.132;2024-02-21T11:58:51;16.73;;;7.60;;
71395;SDS011;59888;55.814;37.132;2024-02-21T12:01:17;16.77;;;7.70;;
71395;SDS011;59888;55.814;37.132;2024-02-21T12:03:44;14.57;;;6.55;;
71395;SDS011;59888;55.814;37.132;2024-02-21T12:06:15;16.05;;;7.50;;
71395;SDS011;59888;55.814;37.132;2024-02-21T12:08:45;18.20;;;7.90;;
71395;SDS011;59888;55.814;37.132;2024-02-21T12:11:30;14.25;;;7.57;;
71395;SDS011;59888;55.814;37.132;2024-02-21T12:14:00;14.63;;;7.05;;
71395;SDS011;59888;55.814;37.132;2024-02-21T12:16:27;18.98;;;8.23;;
71395;SDS011;59888;55.814;37.132;2024-02-21T12:18:53;13.20;;;7.45;;
71395;SDS011;59888;55.814;37.132;2024-02-21T12:21:19;15.38;;;7.35;;
71395;SDS011;59888;55.814;37.132;2024-02-21T12:23:55;16.27;;;7.32;;
71395;SDS011;59888;55.814;37.132;2024-02-21T12:26:22;14.30;;;7.57;;
71395;SDS011;59888;55.814;37.132;2024-02-21T12:28:48;17.15;;;8.00;;
71395;SDS011;59888;55.814;37.132;2024-02-21T12:31:14;15.63;;;7.53;;
71395;SDS011;59888;55.814;37.132;2024-02-21T12:33:40;14.70;;;7.82;;
71395;SDS011;59888;55.814;37.132;2024-02-21T12:36:06;14.43;;;7.43;;
71395;SDS011;59888;55.814;37.132;2024-02-21T12:38:34;17.35;;;8.02;;
71395;SDS011;59888;55.814;37.132;2024-02-21T12:41:01;13.70;;;7.45;;
71395;SDS011;59888;55.814;37.132;2024-02-21T12:43:33;17.92;;;7.50;;
71395;SDS011;59888;55.814;37.132;2024-02-21T12:46:00;16.52;;;7.60;;
71395;SDS011;59888;55.814;37.132;2024-02-21T12:48:26;18.25;;;8.15;;
71395;SDS011;59888;55.814;37.132;2024-02-21T12:50:52;16.02;;;7.70;;
71395;SDS011;59888;55.814;37.132;2024-02-21T12:53:20;14.82;;;6.75;;
71395;SDS011;59888;55.814;37.132;2024-02-21T12:55:52;15.20;;;7.47;;
71395;SDS011;59888;55.814;37.132;2024-02-21T12:58:24;17.50;;;7.88;;
71395;SDS011;59888;55.814;37.132;2024-02-21T13:00:50;15.85;;;7.35;;
71395;SDS011;59888;55.814;37.132;2024-02-21T13:03:16;15.18;;;7.95;;
71395;SDS011;59888;55.814;37.132;2024-02-21T13:05:42;13.50;;;7.10;;
71395;SDS011;59888;55.814;37.132;2024-02-21T13:08:09;16.95;;;7.50;;
71395;SDS011;59888;55.814;37.132;2024-02-21T13:10:34;17.48;;;8.10;;
71395;SDS011;59888;55.814;37.132;2024-02-21T13:13:01;15.15;;;7.20;;
71395;SDS011;59888;55.814;37.132;2024-02-21T13:15:27;15.05;;;7.22;;
71395;SDS011;59888;55.814;37.132;2024-02-21T13:17:56;14.10;;;7.07;;
71395;SDS011;59888;55.814;37.132;2024-02-21T13:20:25;16.60;;;7.70;;
71395;SDS011;59888;55.814;37.132;2024-02-21T13:23:01;15.10;;;8.13;;
71395;SDS011;59888;55.814;37.132;2024-02-21T13:25:28;14.68;;;7.97;;
71395;SDS011;59888;55.814;37.132;2024-02-21T13:27:53;14.48;;;8.13;;
71395;SDS011;59888;55.814;37.132;2024-02-21T13:30:19;16.25;;;8.15;;
71395;SDS011;59888;55.814;37.132;2024-02-21T13:32:46;16.77;;;8.05;;
71395;SDS011;59888;55.814;37.132;2024-02-21T13:35:13;16.20;;;8.30;;
71395;SDS011;59888;55.814;37.132;2024-02-21T13:37:43;16.65;;;8.27;;
71395;SDS011;59888;55.814;37.132;2024-02-21T13:40:09;17.58;;;8.88;;
71395;SDS011;59888;55.814;37.132;2024-02-21T13:42:49;19.13;;;8.85;;
71395;SDS011;59888;55.814;37.132;2024-02-21T13:45:17;18.58;;;8.57;;
71395;SDS011;59888;55.814;37.132;2024-02-21T13:47:44;17.13;;;8.70;;
71395;SDS011;59888;55.814;37.132;2024-02-21T13:50:10;16.98;;;8.45;;
71395;SDS011;59888;55.814;37.132;2024-02-21T13:52:37;17.52;;;8.73;;
71395;SDS011;59888;55.814;37.132;2024-02-21T13:55:03;20.08;;;9.73;;
71395;SDS011;59888;55.814;37.132;2024-02-21T13:57:29;15.95;;;7.68;;
71395;SDS011;59888;55.814;37.132;2024-02-21T13:59:55;17.33;;;9.07;;
71395;SDS011;59888;55.814;37.132;2024-02-21T14:02:21;18.60;;;10.02;;
71395;SDS011;59888;55.814;37.132;2024-02-21T14:04:47;19.83;;;10.05;;
71395;SDS011;59888;55.814;37.132;2024-02-21T14:07:13;20.35;;;9.38;;
71395;SDS011;59888;55.814;37.132;2024-02-21T14:09:41;18.65;;;8.90;;
71395;SDS011;59888;55.814;37.132;2024-02-21T14:12:06;17.25;;;8.68;;
71395;SDS011;59888;55.814;37.132;2024-02-21T14:14:34;17.98;;;9.38;;
71395;SDS011;59888;55.814;37.132;2024-02-21T14:17:01;17.92;;;9.75;;
71395;SDS011;59888;55.814;37.132;2024-02-21T14:19:27;19.63;;;8.65;;
71395;SDS011;59888;55.814;37.132;2024-02-21T14:21:53;18.77;;;9.15;;
71395;SDS011;59888;55.814;37.132;2024-02-21T14:24:19;20.38;;;9.35;;
71395;SDS011;59888;55.814;37.132;2024-02-21T14:26:45;19.63;;;9.20;;
71395;SDS011;59888;55.814;37.132;2024-02-21T14:29:44;21.40;;;10.25;;
71395;SDS011;59888;55.814;37.132;2024-02-21T14:32:10;23.95;;;11.05;;
71395;SDS011;59888;55.814;37.132;2024-02-21T14:34:38;23.30;;;11.13;;
71395;SDS011;59888;55.814;37.132;2024-02-21T14:37:04;23.35;;;10.15;;
71395;SDS011;59888;55.814;37.132;2024-02-21T14:39:30;21.13;;;10.20;;
71395;SDS011;59888;55.814;37.132;2024-02-21T14:41:59;19.85;;;10.00;;
71395;SDS011;59888;55.814;37.132;2024-02-21T14:44:25;22.30;;;10.15;;
71395;SDS011;59888;55.814;37.132;2024-02-21T14:46:52;18.38;;;9.63;;
71395;SDS011;59888;55.814;37.132;2024-02-21T14:49:18;20.65;;;9.98;;
71395;SDS011;59888;55.814;37.132;2024-02-21T14:51:45;21.00;;;9.45;;